sensor_id;sensor_type;location;lat;lon;timestamp;temperature;humidity
15596;DHT22;7898;48.658;9.068;2023-02-28T00:00:37;-2.20;99.90
15596;DHT22;7898;48.658;9.068;2023-02-28T00:03:04;-1.60;99.90
15596;DHT22;7898;48.658;9.068;2023-02-28T00:05:32;-1.60;99.90
15596;DHT22;7898;48.658;9.068;2023-02-28T00:07:59;-2.30;99.90
15596;DHT22;7898;48.658;9.068;2023-02-28T00:10:27;-2.30;99.90
15596;DHT22;7898;48.658;9.068;2023-02-28T00:13:00;-2.30;99.90
15596;DHT22;7898;48.658;9.068;2023-02-28T00:15:27;-1.50;99.90
15596;DHT22;7898;48.658;9.068;2023-02-28T00:17:54;-2.30;99.90
15596;DHT22;7898;48.658;9.068;2023-02-28T00:20:21;-2.30;99.90
15596;DHT22;7898;48.658;9.068;2023-02-28T00:22:50;-2.30;99.90
15596;DHT22;7898;48.658;9.068;2023-02-28T00:25:18;-2.30;99.90
15596;DHT22;7898;48.658;9.068;2023-02-28T00:27:47;-2.40;99.90
15596;DHT22;7898;48.658;9.068;2023-02-28T00:30:17;-2.40;99.90
15596;DHT22;7898;48.658;9.068;2023-02-28T00:32:44;-2.30;99.90
15596;DHT22;7898;48.658;9.068;2023-02-28T00:35:11;-2.50;99.90
15596;DHT22;7898;48.658;9.068;2023-02-28T00:37:39;-2.50;99.90
15596;DHT22;7898;48.658;9.068;2023-02-28T00:40:07;-2.50;99.90
15596;DHT22;7898;48.658;9.068;2023-02-28T00:42:35;-2.50;99.90
15596;DHT22;7898;48.658;9.068;2023-02-28T00:45:02;-2.50;99.90
15596;DHT22;7898;48.658;9.068;2023-02-28T00:47:32;-2.60;99.90
15596;DHT22;7898;48.658;9.068;2023-02-28T00:50:00;-2.10;99.90
15596;DHT22;7898;48.658;9.068;2023-02-28T00:52:26;-2.60;99.90
15596;DHT22;7898;48.658;9.068;2023-02-28T00:54:53;-2.70;99.90
15596;DHT22;7898;48.658;9.068;2023-02-28T00:57:20;-2.10;99.90
15596;DHT22;7898;48.658;9.068;2023-02-28T00:59:47;-2.70;99.90
15596;DHT22;7898;48.658;9.068;2023-02-28T01:02:14;-2.70;99.90
15596;DHT22;7898;48.658;9.068;2023-02-28T01:04:42;-2.70;99.90
15596;DHT22;7898;48.658;9.068;2023-02-28T01:07:09;-2.80;99.90
15596;DHT22;7898;48.658;9.068;2023-02-28T01:09:36;-2.80;99.90
15596;DHT22;7898;48.658;9.068;2023-02-28T01:12:04;-2.80;99.90
15596;DHT22;7898;48.658;9.068;2023-02-28T01:14:30;-2.80;99.90
15596;DHT22;7898;48.658;9.068;2023-02-28T01:16:57;-2.80;99.90
15596;DHT22;7898;48.658;9.068;2023-02-28T01:19:24;-2.80;99.90
15596;DHT22;7898;48.658;9.068;2023-02-28T01:21:52;-2.90;99.90
15596;DHT22;7898;48.658;9.068;2023-02-28T01:24:19;-2.40;99.90
15596;DHT22;7898;48.658;9.068;2023-02-28T01:26:46;-2.90;99.90
15596;DHT22;7898;48.658;9.068;2023-02-28T01:29:13;-2.90;99.90
15596;DHT22;7898;48.658;9.068;2023-02-28T01:31:41;-2.40;99.90
15596;DHT22;7898;48.658;9.068;2023-02-28T01:34:08;-2.90;99.90
15596;DHT22;7898;48.658;9.068;2023-02-28T01:36:35;-2.90;99.90
15596;DHT22;7898;48.658;9.068;2023-02-28T01:39:04;-2.10;99.90
15596;DHT22;7898;48.658;9.068;2023-02-28T01:41:32;-2.90;99.90
15596;DHT22;7898;48.658;9.068;2023-02-28T01:44:03;-2.90;99.90
15596;DHT22;7898;48.658;9.068;2023-02-28T01:46:31;-3.00;99.90
15596;DHT22;7898;48.658;9.068;2023-02-28T01:49:03;-3.00;99.90
15596;DHT22;7898;48.658;9.068;2023-02-28T01:51:37;-3.00;99.90
15596;DHT22;7898;48.658;9.068;2023-02-28T01:54:10;-1.90;99.90
15596;DHT22;7898;48.658;9.068;2023-02-28T01:56:41;-3.00;99.90
15596;DHT22;7898;48.658;9.068;2023-02-28T01:59:12;-3.00;99.90
15596;DHT22;7898;48.658;9.068;2023-02-28T02:01:39;-3.00;99.90
15596;DHT22;7898;48.658;9.068;2023-02-28T02:04:06;-3.00;99.90
15596;DHT22;7898;48.658;9.068;2023-02-28T02:06:37;-3.00;99.90
15596;DHT22;7898;48.658;9.068;2023-02-28T02:09:04;-3.00;99.90
15596;DHT22;7898;48.658;9.068;2023-02-28T02:11:34;-3.00;99.90
15596;DHT22;7898;48.658;9.068;2023-02-28T02:14:12;-2.40;99.90
15596;DHT22;7898;48.658;9.068;2023-02-28T02:16:50;-3.00;99.90
15596;DHT22;7898;48.658;9.068;2023-02-28T02:19:50;-3.10;99.90
15596;DHT22;7898;48.658;9.068;2023-02-28T02:22:37;-3.00;99.90
15596;DHT22;7898;48.658;9.068;2023-02-28T02:25:19;-3.10;99.90
15596;DHT22;7898;48.658;9.068;2023-02-28T02:28:15;-3.10;99.90
15596;DHT22;7898;48.658;9.068;2023-02-28T02:34:26;-3.10;99.90
15596;DHT22;7898;48.658;9.068;2023-02-28T02:37:03;-3.00;99.90
15596;DHT22;7898;48.658;9.068;2023-02-28T02:39:36;-3.00;99.90
15596;DHT22;7898;48.658;9.068;2023-02-28T02:42:12;-2.40;99.90
15596;DHT22;7898;48.658;9.068;2023-02-28T02:44:43;-2.20;99.90
15596;DHT22;7898;48.658;9.068;2023-02-28T02:47:15;-2.40;99.90
15596;DHT22;7898;48.658;9.068;2023-02-28T02:49:47;-2.90;99.90
15596;DHT22;7898;48.658;9.068;2023-02-28T02:52:18;-2.90;99.90
15596;DHT22;7898;48.658;9.068;2023-02-28T02:54:49;-2.90;99.90
15596;DHT22;7898;48.658;9.068;2023-02-28T02:57:23;-2.80;99.90
15596;DHT22;7898;48.658;9.068;2023-02-28T02:59:53;-2.80;99.90
15596;DHT22;7898;48.658;9.068;2023-02-28T03:02:22;-2.80;99.90
15596;DHT22;7898;48.658;9.068;2023-02-28T03:04:59;-2.80;99.90
15596;DHT22;7898;48.658;9.068;2023-02-28T03:07:26;-2.70;99.90
15596;DHT22;7898;48.658;9.068;2023-02-28T03:09:54;-2.80;99.90
15596;DHT22;7898;48.658;9.068;2023-02-28T03:12:25;-2.70;99.90
15596;DHT22;7898;48.658;9.068;2023-02-28T03:15:04;-2.70;99.90
15596;DHT22;7898;48.658;9.068;2023-02-28T03:17:52;-2.20;99.90
15596;DHT22;7898;48.658;9.068;2023-02-28T03:20:32;-2.70;99.90
15596;DHT22;7898;48.658;9.068;2023-02-28T03:23:10;-2.70;99.90
15596;DHT22;7898;48.658;9.068;2023-02-28T03:25:48;-2.10;99.90
15596;DHT22;7898;48.658;9.068;2023-02-28T03:28:23;-2.70;99.90
15596;DHT22;7898;48.658;9.068;2023-02-28T03:30:57;-2.70;99.90
15596;DHT22;7898;48.658;9.068;2023-02-28T03:33:29;-2.70;99.90
15596;DHT22;7898;48.658;9.068;2023-02-28T03:36:02;-2.70;99.90
15596;DHT22;7898;48.658;9.068;2023-02-28T03:38:33;-2.70;99.90
15596;DHT22;7898;48.658;9.068;2023-02-28T03:41:06;-2.70;99.90
15596;DHT22;7898;48.658;9.068;2023-02-28T03:43:38;-2.70;99.90
15596;DHT22;7898;48.658;9.068;2023-02-28T03:46:09;-2.60;99.90
15596;DHT22;7898;48.658;9.068;2023-02-28T03:48:41;-2.60;99.90
15596;DHT22;7898;48.658;9.068;2023-02-28T03:51:14;-2.60;99.90
15596;DHT22;7898;48.658;9.068;2023-02-28T03:53:44;-2.60;99.90
15596;DHT22;7898;48.658;9.068;2023-02-28T03:56:15;-2.60;99.90
15596;DHT22;7898;48.658;9.068;2023-02-28T03:58:49;-2.60;99.90
15596;DHT22;7898;48.658;9.068;2023-02-28T04:01:21;-2.60;99.90
15596;DHT22;7898;48.658;9.068;2023-02-28T04:03:50;-1.70;99.90
15596;DHT22;7898;48.658;9.068;2023-02-28T04:06:20;-2.60;99.90
15596;DHT22;7898;48.658;9.068;2023-02-28T04:08:48;-2.20;99.90
15596;DHT22;7898;48.658;9.068;2023-02-28T04:11:21;-2.20;99.90
15596;DHT22;7898;48.658;9.068;2023-02-28T04:13:49;-2.50;99.90
15596;DHT22;7898;48.658;9.068;2023-02-28T04:16:16;-2.50;99.90
15596;DHT22;7898;48.658;9.068;2023-02-28T04:18:43;-1.60;99.90
15596;DHT22;7898;48.658;9.068;2023-02-28T04:21:10;-2.50;99.90
15596;DHT22;7898;48.658;9.068;2023-02-28T04:23:39;-2.50;99.90
15596;DHT22;7898;48.658;9.068;2023-02-28T04:26:09;-1.60;99.90
15596;DHT22;7898;48.658;9.068;2023-02-28T04:28:37;-2.50;99.90
15596;DHT22;7898;48.658;9.068;2023-02-28T04:31:05;-2.50;99.90
15596;DHT22;7898;48.658;9.068;2023-02-28T04:33:32;-2.40;99.90
15596;DHT22;7898;48.658;9.068;2023-02-28T04:36:01;-2.40;99.90
15596;DHT22;7898;48.658;9.068;2023-02-28T04:38:29;-2.40;99.90
15596;DHT22;7898;48.658;9.068;2023-02-28T04:40:58;-2.40;99.90
15596;DHT22;7898;48.658;9.068;2023-02-28T04:43:26;-2.40;99.90
15596;DHT22;7898;48.658;9.068;2023-02-28T04:45:53;-2.10;99.90
15596;DHT22;7898;48.658;9.068;2023-02-28T04:48:22;-2.40;99.90
15596;DHT22;7898;48.658;9.068;2023-02-28T04:50:49;-2.30;99.90
15596;DHT22;7898;48.658;9.068;2023-02-28T04:53:16;-2.10;99.90
15596;DHT22;7898;48.658;9.068;2023-02-28T04:55:43;-2.40;99.90
15596;DHT22;7898;48.658;9.068;2023-02-28T04:58:12;-2.30;99.90
15596;DHT22;7898;48.658;9.068;2023-02-28T05:00:39;-2.30;99.90
15596;DHT22;7898;48.658;9.068;2023-02-28T05:03:06;-2.30;99.90
15596;DHT22;7898;48.658;9.068;2023-02-28T05:05:33;-2.30;99.90
15596;DHT22;7898;48.658;9.068;2023-02-28T05:08:00;-2.30;99.90
15596;DHT22;7898;48.658;9.068;2023-02-28T05:10:27;-2.30;99.90
15596;DHT22;7898;48.658;9.068;2023-02-28T05:12:54;-2.30;99.90
15596;DHT22;7898;48.658;9.068;2023-02-28T05:15:23;-2.30;99.90
15596;DHT22;7898;48.658;9.068;2023-02-28T05:17:50;-1.30;99.90
15596;DHT22;7898;48.658;9.068;2023-02-28T05:20:17;-2.30;99.90
15596;DHT22;7898;48.658;9.068;2023-02-28T05:22:44;-2.30;99.90
15596;DHT22;7898;48.658;9.068;2023-02-28T05:25:13;-2.20;99.90
15596;DHT22;7898;48.658;9.068;2023-02-28T05:27:42;-2.20;99.90
15596;DHT22;7898;48.658;9.068;2023-02-28T05:30:10;-2.20;99.90
15596;DHT22;7898;48.658;9.068;2023-02-28T05:32:39;-2.20;99.90
15596;DHT22;7898;48.658;9.068;2023-02-28T05:35:09;-2.30;99.90
15596;DHT22;7898;48.658;9.068;2023-02-28T05:37:37;-2.20;99.90
15596;DHT22;7898;48.658;9.068;2023-02-28T05:40:07;-2.20;99.90
15596;DHT22;7898;48.658;9.068;2023-02-28T05:42:36;-2.20;99.90
15596;DHT22;7898;48.658;9.068;2023-02-28T05:45:03;-2.20;99.90
15596;DHT22;7898;48.658;9.068;2023-02-28T05:47:30;-2.20;99.90
15596;DHT22;7898;48.658;9.068;2023-02-28T05:49:59;-2.20;99.90
15596;DHT22;7898;48.658;9.068;2023-02-28T05:52:26;-2.20;99.90
15596;DHT22;7898;48.658;9.068;2023-02-28T05:54:53;-2.20;99.90
15596;DHT22;7898;48.658;9.068;2023-02-28T05:57:20;-2.20;99.90
15596;DHT22;7898;48.658;9.068;2023-02-28T05:59:47;-2.20;99.90
15596;DHT22;7898;48.658;9.068;2023-02-28T06:02:16;-2.30;99.90
15596;DHT22;7898;48.658;9.068;2023-02-28T06:04:44;-2.30;99.90
15596;DHT22;7898;48.658;9.068;2023-02-28T06:07:12;-2.20;99.90
15596;DHT22;7898;48.658;9.068;2023-02-28T06:09:40;-2.30;99.90
15596;DHT22;7898;48.658;9.068;2023-02-28T06:12:07;-2.20;99.90
15596;DHT22;7898;48.658;9.068;2023-02-28T06:14:35;-2.30;99.90
15596;DHT22;7898;48.658;9.068;2023-02-28T06:17:03;-2.30;99.90
15596;DHT22;7898;48.658;9.068;2023-02-28T06:19:30;-2.30;99.90
15596;DHT22;7898;48.658;9.068;2023-02-28T06:21:57;-2.20;99.90
15596;DHT22;7898;48.658;9.068;2023-02-28T06:24:27;-2.10;99.90
15596;DHT22;7898;48.658;9.068;2023-02-28T06:26:57;-2.30;99.90
15596;DHT22;7898;48.658;9.068;2023-02-28T06:29:24;-2.20;99.90
15596;DHT22;7898;48.658;9.068;2023-02-28T06:31:51;-2.20;99.90
15596;DHT22;7898;48.658;9.068;2023-02-28T06:34:18;-2.20;99.90
15596;DHT22;7898;48.658;9.068;2023-02-28T06:36:45;-2.20;99.90
15596;DHT22;7898;48.658;9.068;2023-02-28T06:39:12;-2.20;99.90
15596;DHT22;7898;48.658;9.068;2023-02-28T06:41:40;-1.80;99.90
15596;DHT22;7898;48.658;9.068;2023-02-28T06:44:12;-1.40;99.90
15596;DHT22;7898;48.658;9.068;2023-02-28T06:46:39;-2.10;99.90
15596;DHT22;7898;48.658;9.068;2023-02-28T06:49:06;-2.10;99.90
15596;DHT22;7898;48.658;9.068;2023-02-28T06:51:35;-2.10;99.90
15596;DHT22;7898;48.658;9.068;2023-02-28T06:54:03;-2.10;99.90
15596;DHT22;7898;48.658;9.068;2023-02-28T06:56:30;-2.00;99.90
15596;DHT22;7898;48.658;9.068;2023-02-28T06:59:00;-2.10;99.90
15596;DHT22;7898;48.658;9.068;2023-02-28T07:01:27;-1.00;99.90
15596;DHT22;7898;48.658;9.068;2023-02-28T07:03:54;-2.00;99.90
15596;DHT22;7898;48.658;9.068;2023-02-28T07:06:22;-2.00;99.90
15596;DHT22;7898;48.658;9.068;2023-02-28T07:08:49;-1.00;99.90
15596;DHT22;7898;48.658;9.068;2023-02-28T07:11:17;-1.40;99.90
15596;DHT22;7898;48.658;9.068;2023-02-28T07:13:44;-1.80;99.90
15596;DHT22;7898;48.658;9.068;2023-02-28T07:16:14;-1.80;99.90
15596;DHT22;7898;48.658;9.068;2023-02-28T07:18:41;-0.80;99.90
15596;DHT22;7898;48.658;9.068;2023-02-28T07:21:09;-1.80;99.90
15596;DHT22;7898;48.658;9.068;2023-02-28T07:23:37;-1.70;99.90
15596;DHT22;7898;48.658;9.068;2023-02-28T07:26:05;-1.20;99.90
15596;DHT22;7898;48.658;9.068;2023-02-28T07:28:32;-1.70;99.90
15596;DHT22;7898;48.658;9.068;2023-02-28T07:31:03;-1.70;99.90
15596;DHT22;7898;48.658;9.068;2023-02-28T07:33:32;-1.60;99.90
15596;DHT22;7898;48.658;9.068;2023-02-28T07:36:01;-1.60;99.90
15596;DHT22;7898;48.658;9.068;2023-02-28T07:38:28;-0.90;99.90
15596;DHT22;7898;48.658;9.068;2023-02-28T07:40:55;-1.60;99.90
15596;DHT22;7898;48.658;9.068;2023-02-28T07:43:22;-1.60;99.90
15596;DHT22;7898;48.658;9.068;2023-02-28T07:45:49;-1.50;99.90
15596;DHT22;7898;48.658;9.068;2023-02-28T07:48:16;-1.40;99.90
15596;DHT22;7898;48.658;9.068;2023-02-28T07:50:44;-1.40;99.90
15596;DHT22;7898;48.658;9.068;2023-02-28T07:53:13;-1.40;99.90
15596;DHT22;7898;48.658;9.068;2023-02-28T07:55:40;-1.30;99.90
15596;DHT22;7898;48.658;9.068;2023-02-28T07:58:07;-1.30;99.90
15596;DHT22;7898;48.658;9.068;2023-02-28T08:00:34;-1.30;99.90
15596;DHT22;7898;48.658;9.068;2023-02-28T08:03:01;-1.30;99.90
15596;DHT22;7898;48.658;9.068;2023-02-28T08:05:28;-1.30;99.90
15596;DHT22;7898;48.658;9.068;2023-02-28T08:07:57;-1.30;99.90
15596;DHT22;7898;48.658;9.068;2023-02-28T08:10:24;-1.20;99.90
15596;DHT22;7898;48.658;9.068;2023-02-28T08:12:51;-1.20;99.90
15596;DHT22;7898;48.658;9.068;2023-02-28T08:15:18;-1.20;99.90
15596;DHT22;7898;48.658;9.068;2023-02-28T08:17:45;-1.10;99.90
15596;DHT22;7898;48.658;9.068;2023-02-28T08:20:12;-1.10;99.90
15596;DHT22;7898;48.658;9.068;2023-02-28T08:22:39;-1.00;99.90
15596;DHT22;7898;48.658;9.068;2023-02-28T08:25:09;-0.40;99.90
15596;DHT22;7898;48.658;9.068;2023-02-28T08:27:36;-0.90;99.90
15596;DHT22;7898;48.658;9.068;2023-02-28T08:30:04;-0.90;99.90
15596;DHT22;7898;48.658;9.068;2023-02-28T08:32:32;-0.90;99.90
15596;DHT22;7898;48.658;9.068;2023-02-28T08:34:59;-0.80;99.90
15596;DHT22;7898;48.658;9.068;2023-02-28T08:37:27;-1.40;99.90
15596;DHT22;7898;48.658;9.068;2023-02-28T08:39:54;-0.70;99.90
15596;DHT22;7898;48.658;9.068;2023-02-28T08:42:22;-0.60;99.90
15596;DHT22;7898;48.658;9.068;2023-02-28T08:44:49;-0.70;99.90
15596;DHT22;7898;48.658;9.068;2023-02-28T08:47:16;-0.40;99.90
15596;DHT22;7898;48.658;9.068;2023-02-28T08:49:43;-0.70;99.90
15596;DHT22;7898;48.658;9.068;2023-02-28T08:52:10;-0.70;99.90
15596;DHT22;7898;48.658;9.068;2023-02-28T08:54:37;-0.60;99.90
15596;DHT22;7898;48.658;9.068;2023-02-28T08:57:04;-0.60;99.90
15596;DHT22;7898;48.658;9.068;2023-02-28T08:59:32;-0.60;99.90
15596;DHT22;7898;48.658;9.068;2023-02-28T09:01:59;-0.60;99.90
15596;DHT22;7898;48.658;9.068;2023-02-28T09:04:26;-0.60;99.90
15596;DHT22;7898;48.658;9.068;2023-02-28T09:06:56;-0.60;99.90
15596;DHT22;7898;48.658;9.068;2023-02-28T09:09:26;-1.10;99.90
15596;DHT22;7898;48.658;9.068;2023-02-28T09:11:55;-0.60;99.90
15596;DHT22;7898;48.658;9.068;2023-02-28T09:14:22;-0.50;99.90
15596;DHT22;7898;48.658;9.068;2023-02-28T09:16:50;-0.20;99.90
15596;DHT22;7898;48.658;9.068;2023-02-28T09:19:17;-0.40;99.90
15596;DHT22;7898;48.658;9.068;2023-02-28T09:21:44;0.00;99.90
15596;DHT22;7898;48.658;9.068;2023-02-28T09:24:11;-0.30;99.90
15596;DHT22;7898;48.658;9.068;2023-02-28T09:26:40;-0.30;99.90
15596;DHT22;7898;48.658;9.068;2023-02-28T09:29:07;-0.30;99.90
15596;DHT22;7898;48.658;9.068;2023-02-28T09:31:34;-0.10;99.90
15596;DHT22;7898;48.658;9.068;2023-02-28T09:34:04;0.20;99.90
15596;DHT22;7898;48.658;9.068;2023-02-28T09:36:31;-0.10;99.90
15596;DHT22;7898;48.658;9.068;2023-02-28T09:38:58;-0.10;99.90
15596;DHT22;7898;48.658;9.068;2023-02-28T09:41:27;-0.10;99.90
15596;DHT22;7898;48.658;9.068;2023-02-28T09:44:03;0.80;99.90
15596;DHT22;7898;48.658;9.068;2023-02-28T09:46:33;0.50;99.90
15596;DHT22;7898;48.658;9.068;2023-02-28T09:49:05;0.00;99.90
15596;DHT22;7898;48.658;9.068;2023-02-28T09:51:44;0.30;99.90
15596;DHT22;7898;48.658;9.068;2023-02-28T09:54:15;0.40;99.90
15596;DHT22;7898;48.658;9.068;2023-02-28T09:56:45;0.30;99.90
15596;DHT22;7898;48.658;9.068;2023-02-28T09:59:21;0.30;99.90
15596;DHT22;7898;48.658;9.068;2023-02-28T10:01:57;0.40;99.90
15596;DHT22;7898;48.658;9.068;2023-02-28T10:04:40;0.30;99.90
15596;DHT22;7898;48.658;9.068;2023-02-28T10:07:18;0.30;99.90
15596;DHT22;7898;48.658;9.068;2023-02-28T10:09:51;0.30;99.90
15596;DHT22;7898;48.658;9.068;2023-02-28T10:12:20;0.30;99.90
15596;DHT22;7898;48.658;9.068;2023-02-28T10:14:50;0.30;99.90
15596;DHT22;7898;48.658;9.068;2023-02-28T10:17:21;0.30;99.90
15596;DHT22;7898;48.658;9.068;2023-02-28T10:19:56;0.40;99.90
15596;DHT22;7898;48.658;9.068;2023-02-28T10:22:29;0.40;99.90
15596;DHT22;7898;48.658;9.068;2023-02-28T10:24:59;0.50;99.90
15596;DHT22;7898;48.658;9.068;2023-02-28T10:27:29;1.00;99.90
15596;DHT22;7898;48.658;9.068;2023-02-28T10:29:58;0.50;99.90
15596;DHT22;7898;48.658;9.068;2023-02-28T10:32:27;0.60;99.90
15596;DHT22;7898;48.658;9.068;2023-02-28T10:35:09;0.70;99.90
15596;DHT22;7898;48.658;9.068;2023-02-28T10:37:38;0.80;99.90
15596;DHT22;7898;48.658;9.068;2023-02-28T10:40:07;1.20;99.90
15596;DHT22;7898;48.658;9.068;2023-02-28T10:42:56;0.80;99.90
15596;DHT22;7898;48.658;9.068;2023-02-28T10:45:24;0.90;99.90
15596;DHT22;7898;48.658;9.068;2023-02-28T10:47:53;0.90;99.90
15596;DHT22;7898;48.658;9.068;2023-02-28T10:50:36;1.10;99.90
15596;DHT22;7898;48.658;9.068;2023-02-28T10:53:28;0.90;99.90
15596;DHT22;7898;48.658;9.068;2023-02-28T10:55:59;1.10;99.90
15596;DHT22;7898;48.658;9.068;2023-02-28T10:58:29;1.30;99.90
15596;DHT22;7898;48.658;9.068;2023-02-28T11:00:58;1.80;99.90
15596;DHT22;7898;48.658;9.068;2023-02-28T11:03:30;1.50;99.90
15596;DHT22;7898;48.658;9.068;2023-02-28T11:06:04;1.60;99.90
15596;DHT22;7898;48.658;9.068;2023-02-28T11:08:31;1.60;99.90
15596;DHT22;7898;48.658;9.068;2023-02-28T11:11:03;2.10;99.90
15596;DHT22;7898;48.658;9.068;2023-02-28T11:13:32;2.30;99.90
15596;DHT22;7898;48.658;9.068;2023-02-28T11:16:03;2.40;99.90
15596;DHT22;7898;48.658;9.068;2023-02-28T11:18:36;2.50;99.90
15596;DHT22;7898;48.658;9.068;2023-02-28T11:21:06;2.60;99.90
15596;DHT22;7898;48.658;9.068;2023-02-28T11:23:35;2.60;99.90
15596;DHT22;7898;48.658;9.068;2023-02-28T11:26:04;2.50;99.90
15596;DHT22;7898;48.658;9.068;2023-02-28T11:28:37;2.50;99.90
15596;DHT22;7898;48.658;9.068;2023-02-28T11:31:14;2.80;99.90
15596;DHT22;7898;48.658;9.068;2023-02-28T11:33:43;2.30;99.90
15596;DHT22;7898;48.658;9.068;2023-02-28T11:36:14;2.30;99.90
15596;DHT22;7898;48.658;9.068;2023-02-28T11:38:41;2.30;99.90
15596;DHT22;7898;48.658;9.068;2023-02-28T11:44:21;2.10;99.90
15596;DHT22;7898;48.658;9.068;2023-02-28T11:46:51;1.90;99.90
15596;DHT22;7898;48.658;9.068;2023-02-28T11:49:30;2.10;99.90
15596;DHT22;7898;48.658;9.068;2023-02-28T11:52:09;2.40;99.90
15596;DHT22;7898;48.658;9.068;2023-02-28T11:55:00;2.70;99.90
15596;DHT22;7898;48.658;9.068;2023-02-28T11:57:38;2.90;99.90
15596;DHT22;7898;48.658;9.068;2023-02-28T12:00:26;3.00;99.90
15596;DHT22;7898;48.658;9.068;2023-02-28T12:03:06;3.50;99.90
15596;DHT22;7898;48.658;9.068;2023-02-28T12:05:44;3.90;99.90
15596;DHT22;7898;48.658;9.068;2023-02-28T12:08:26;3.90;99.90
15596;DHT22;7898;48.658;9.068;2023-02-28T12:11:06;4.50;99.90
15596;DHT22;7898;48.658;9.068;2023-02-28T12:13:46;4.00;99.90
15596;DHT22;7898;48.658;9.068;2023-02-28T12:16:36;5.00;99.90
15596;DHT22;7898;48.658;9.068;2023-02-28T12:19:16;4.70;99.90
15596;DHT22;7898;48.658;9.068;2023-02-28T12:22:04;4.70;99.90
15596;DHT22;7898;48.658;9.068;2023-02-28T12:24:54;5.10;99.90
15596;DHT22;7898;48.658;9.068;2023-02-28T12:27:27;5.00;99.90
15596;DHT22;7898;48.658;9.068;2023-02-28T12:29:58;4.90;99.90
15596;DHT22;7898;48.658;9.068;2023-02-28T12:32:33;5.00;99.90
15596;DHT22;7898;48.658;9.068;2023-02-28T12:35:04;4.70;99.90
15596;DHT22;7898;48.658;9.068;2023-02-28T12:37:37;4.60;99.90
15596;DHT22;7898;48.658;9.068;2023-02-28T12:40:12;4.70;99.90
15596;DHT22;7898;48.658;9.068;2023-02-28T12:42:43;4.80;99.90
15596;DHT22;7898;48.658;9.068;2023-02-28T12:45:17;5.20;99.90
15596;DHT22;7898;48.658;9.068;2023-02-28T12:47:48;5.40;99.90
15596;DHT22;7898;48.658;9.068;2023-02-28T12:50:17;5.70;99.90
15596;DHT22;7898;48.658;9.068;2023-02-28T12:52:52;5.70;99.90
15596;DHT22;7898;48.658;9.068;2023-02-28T12:55:27;5.50;99.90
15596;DHT22;7898;48.658;9.068;2023-02-28T12:58:05;5.40;99.90
15596;DHT22;7898;48.658;9.068;2023-02-28T13:00:37;6.60;99.90
15596;DHT22;7898;48.658;9.068;2023-02-28T13:03:34;5.60;99.90
15596;DHT22;7898;48.658;9.068;2023-02-28T13:06:25;6.30;99.90
15596;DHT22;7898;48.658;9.068;2023-02-28T13:09:03;6.60;99.90
15596;DHT22;7898;48.658;9.068;2023-02-28T13:11:33;6.70;99.90
15596;DHT22;7898;48.658;9.068;2023-02-28T13:14:19;6.90;99.90
15596;DHT22;7898;48.658;9.068;2023-02-28T13:17:00;6.60;99.90
15596;DHT22;7898;48.658;9.068;2023-02-28T13:19:30;6.60;99.90
15596;DHT22;7898;48.658;9.068;2023-02-28T13:21:58;6.60;99.90
15596;DHT22;7898;48.658;9.068;2023-02-28T13:24:46;6.80;99.90
15596;DHT22;7898;48.658;9.068;2023-02-28T13:27:36;6.60;99.90
15596;DHT22;7898;48.658;9.068;2023-02-28T13:33:25;6.00;99.90
15596;DHT22;7898;48.658;9.068;2023-02-28T13:36:12;5.60;99.90
15596;DHT22;7898;48.658;9.068;2023-02-28T13:38:50;5.70;99.90
15596;DHT22;7898;48.658;9.068;2023-02-28T13:41:44;6.30;99.90
15596;DHT22;7898;48.658;9.068;2023-02-28T13:44:14;6.50;99.90
15596;DHT22;7898;48.658;9.068;2023-02-28T13:47:22;6.70;99.90
15596;DHT22;7898;48.658;9.068;2023-02-28T13:49:51;6.20;99.90
15596;DHT22;7898;48.658;9.068;2023-02-28T13:52:21;6.20;99.90
15596;DHT22;7898;48.658;9.068;2023-02-28T13:55:13;6.30;99.90
15596;DHT22;7898;48.658;9.068;2023-02-28T13:58:08;6.60;99.90
15596;DHT22;7898;48.658;9.068;2023-02-28T14:00:52;6.70;99.90
15596;DHT22;7898;48.658;9.068;2023-02-28T14:03:39;6.80;99.90
15596;DHT22;7898;48.658;9.068;2023-02-28T14:06:14;6.90;99.90
15596;DHT22;7898;48.658;9.068;2023-02-28T14:08:49;7.50;99.90
15596;DHT22;7898;48.658;9.068;2023-02-28T14:11:28;8.00;99.90
15596;DHT22;7898;48.658;9.068;2023-02-28T14:13:57;8.10;99.90
15596;DHT22;7898;48.658;9.068;2023-02-28T14:16:26;8.90;99.90
15596;DHT22;7898;48.658;9.068;2023-02-28T14:18:58;9.10;99.90
15596;DHT22;7898;48.658;9.068;2023-02-28T14:21:29;9.20;99.90
15596;DHT22;7898;48.658;9.068;2023-02-28T14:24:20;8.80;99.90
15596;DHT22;7898;48.658;9.068;2023-02-28T14:27:17;9.00;99.90
15596;DHT22;7898;48.658;9.068;2023-02-28T14:33:05;9.00;99.90
15596;DHT22;7898;48.658;9.068;2023-02-28T14:35:52;9.30;99.90
15596;DHT22;7898;48.658;9.068;2023-02-28T14:38:25;9.40;99.90
15596;DHT22;7898;48.658;9.068;2023-02-28T14:40:57;9.80;99.90
15596;DHT22;7898;48.658;9.068;2023-02-28T14:43:26;10.20;99.90
15596;DHT22;7898;48.658;9.068;2023-02-28T14:45:56;10.20;99.90
15596;DHT22;7898;48.658;9.068;2023-02-28T14:48:25;10.00;99.90
15596;DHT22;7898;48.658;9.068;2023-02-28T14:50:55;10.10;99.90
15596;DHT22;7898;48.658;9.068;2023-02-28T14:53:26;10.30;99.90
15596;DHT22;7898;48.658;9.068;2023-02-28T14:55:54;10.40;99.90
15596;DHT22;7898;48.658;9.068;2023-02-28T14:58:26;10.10;99.90
15596;DHT22;7898;48.658;9.068;2023-02-28T15:00:54;10.10;99.90
15596;DHT22;7898;48.658;9.068;2023-02-28T15:03:27;9.90;99.90
15596;DHT22;7898;48.658;9.068;2023-02-28T15:05:58;9.80;99.90
15596;DHT22;7898;48.658;9.068;2023-02-28T15:08:26;9.60;99.90
15596;DHT22;7898;48.658;9.068;2023-02-28T15:10:56;9.70;99.90
15596;DHT22;7898;48.658;9.068;2023-02-28T15:13:30;10.00;99.90
15596;DHT22;7898;48.658;9.068;2023-02-28T15:16:00;9.90;99.90
15596;DHT22;7898;48.658;9.068;2023-02-28T15:18:36;9.80;99.90
15596;DHT22;7898;48.658;9.068;2023-02-28T15:21:07;9.40;99.90
15596;DHT22;7898;48.658;9.068;2023-02-28T15:23:35;9.10;99.90
15596;DHT22;7898;48.658;9.068;2023-02-28T15:26:03;8.80;99.90
15596;DHT22;7898;48.658;9.068;2023-02-28T15:28:31;9.30;99.90
15596;DHT22;7898;48.658;9.068;2023-02-28T15:31:00;9.40;99.90
15596;DHT22;7898;48.658;9.068;2023-02-28T15:33:28;9.20;99.90
15596;DHT22;7898;48.658;9.068;2023-02-28T15:36:15;9.40;99.90
15596;DHT22;7898;48.658;9.068;2023-02-28T15:38:50;8.70;99.90
15596;DHT22;7898;48.658;9.068;2023-02-28T15:41:28;8.40;99.90
15596;DHT22;7898;48.658;9.068;2023-02-28T15:44:24;8.10;99.90
15596;DHT22;7898;48.658;9.068;2023-02-28T15:46:58;8.20;99.90
15596;DHT22;7898;48.658;9.068;2023-02-28T15:49:27;8.00;99.90
15596;DHT22;7898;48.658;9.068;2023-02-28T15:51:58;7.70;99.90
15596;DHT22;7898;48.658;9.068;2023-02-28T15:54:29;7.50;99.90
15596;DHT22;7898;48.658;9.068;2023-02-28T15:56:59;7.10;99.90
15596;DHT22;7898;48.658;9.068;2023-02-28T15:59:29;6.40;99.90
15596;DHT22;7898;48.658;9.068;2023-02-28T16:02:15;6.00;99.90
15596;DHT22;7898;48.658;9.068;2023-02-28T16:05:02;5.70;99.90
15596;DHT22;7898;48.658;9.068;2023-02-28T16:07:30;5.20;99.90
15596;DHT22;7898;48.658;9.068;2023-02-28T16:09:57;4.90;99.90
15596;DHT22;7898;48.658;9.068;2023-02-28T16:12:28;4.70;99.90
15596;DHT22;7898;48.658;9.068;2023-02-28T16:14:58;4.80;99.90
15596;DHT22;7898;48.658;9.068;2023-02-28T16:17:28;4.80;99.90
15596;DHT22;7898;48.658;9.068;2023-02-28T16:19:56;4.40;99.90
15596;DHT22;7898;48.658;9.068;2023-02-28T16:22:23;4.20;99.90
15596;DHT22;7898;48.658;9.068;2023-02-28T16:24:52;4.80;99.90
15596;DHT22;7898;48.658;9.068;2023-02-28T16:27:21;4.70;99.90
15596;DHT22;7898;48.658;9.068;2023-02-28T16:29:50;3.90;99.90
15596;DHT22;7898;48.658;9.068;2023-02-28T16:32:17;3.90;99.90